Chavies, Kentucky
Current Conditions -  °F | °C
As of 1:53 PM on Monday 20 Oct 2014 (Local Time) from KJKL Reporting Station
Light Rain Light Rain  
Wind Chill: 53°   Ceiling: 8500
Heat Index: 53°   Visibility: 10mi
Dew Point: 48°   Wind: 5mph
Humidity: 83%   Direction: NA
Pressure: 29.99"   Gusts: NA
Location:  37.35°N, 83.36°W
Report Text: KJKL 201753Z AUTO VRB04KT 10SM -RA OVC085 12/09 A2999 RMK AO2 RAB1659 PRESFR SLP154 P0001 60001 T01170089 10128 20044 58028
Loading
Personal Weather Stations






























Interactive Weather Map
Tropical Storm Tracking
New forecast layout! Learn more

10-Day Weather Forecast

Advertisements
Track Severe Weather on mobile